ESSV/VBY METAR and TAF weather

Enter ICAO airport designator
Station Type Date Time Source
ESSV METAR 2022/07/03 15:20 UTC NOAA

ESSV 031520Z 25010KT CAVOK 22/14 Q1019


Station Type Date Time Source
ESSV Decoded METAR 2022/07/03 15:20 UTC NOAA

Visby Flygplats, Sweden (ESSV) 57-40N 018-21E 47M
Jul 03, 2022 - 11:20 AM EDT / 2022.07.03 1520 UTC
Wind: from the WSW (250 degrees) at 12 MPH (10 KT):0
Visibility: greater than 7 mile(s):0
Temperature: 71 F (22 C)
Dew Point: 57 F (14 C)
Relative Humidity: 60%
Pressure (altimeter): 30.09 in. Hg (1019 hPa)
ob: ESSV 031520Z 25010KT CAVOK 22/14 Q1019
cycle: 15

Station Type Date Time Source
ESSV TAF 2017/09/20 09:39 UTC NOAA

TAF COR TAF COR ESSV 200840Z 2009/2021 10005KT 9999 BKN030 PROB40 2009/2016 4000 TS SHRA BKN015CB

Example: see airport list